Time;durP1;ratioP1;P1;durP2;ratioP2;P2;SDS_P1;SDS_P2;PMS_P1;PMS_P2;Temp;Humidity;BMP_temperature;BMP_pressure;BME280_temperature;BME280_humidity;BME280_pressure;Samples;Min_cycle;Max_cycle;Signal;HPM_P1;HPM_P2
2022/12/15 00:40:16;;;;;;;8.05;5.80;;;;;;;20.41;47.65;99308.41;20899314;28;20028;-82
2022/12/15 01:21:18;;;;;;;7.60;5.15;;;;;;;20.36;47.74;99301.88;20899613;28;20037;-82
2022/12/15 01:31:19;;;;;;;6.53;5.18;;;;;;;20.41;47.33;99311.03;20888254;28;20056;-80
2022/12/15 01:41:21;;;;;;;6.25;4.90;;;;;;;20.36;47.62;99318.50;20902401;28;20439;-83
2022/12/15 01:51:31;;;;;;;6.03;4.87;;;;;;;20.37;47.64;99312.25;20890728;28;20064;-80
2022/12/15 02:12:04;;;;;;;7.28;5.15;;;;;;;20.32;47.75;99311.84;21089138;23;20062;-94
2022/12/15 02:22:32;;;;;;;7.57;5.45;;;;;;;20.33;47.96;99310.06;20751337;28;20037;-93
2022/12/15 02:32:47;;;;;;;5.22;4.22;;;;;;;20.33;47.93;99315.31;20761400;28;20053;-93
2022/12/15 02:42:56;;;;;;;6.35;4.90;;;;;;;20.36;47.70;99315.03;20770752;28;20139;-95
2022/12/15 02:53:34;;;;;;;8.02;5.55;;;;;;;20.35;47.65;99329.13;20771089;28;20083;-93
2022/12/15 03:03:38;;;;;;;6.57;4.90;;;;;;;20.33;47.68;99321.41;20780598;28;20121;-93
2022/12/15 03:13:39;;;;;;;5.47;4.40;;;;;;;20.35;47.39;99334.41;20836934;28;20589;-90
2022/12/15 03:23:39;;;;;;;7.60;5.20;;;;;;;20.33;47.75;99347.69;20834586;28;20049;-92
2022/12/15 03:33:40;;;;;;;6.75;4.60;;;;;;;20.31;47.54;99347.00;20840057;28;20184;-95
2022/12/15 03:43:41;;;;;;;6.30;4.72;;;;;;;20.34;47.63;99338.03;20837377;28;20051;-94
2022/12/15 03:53:46;;;;;;;7.43;4.22;;;;;;;20.30;47.57;99338.28;20842276;28;20124;-96
2022/12/15 04:03:47;;;;;;;6.57;4.93;;;;;;;20.27;47.59;99362.22;20842183;28;20056;-94
2022/12/15 04:13:47;;;;;;;6.22;4.97;;;;;;;20.28;47.34;99371.75;20858246;28;20037;-90
2022/12/15 05:36:16;;;;;;;11.77;5.78;;;;;;;20.60;48.93;99464.50;20835362;28;20723;-80
2022/12/15 05:46:18;;;;;;;12.77;5.88;;;;;;;20.67;48.36;99493.75;20832130;28;20051;-86
2022/12/15 05:56:20;;;;;;;18.73;6.18;;;;;;;20.75;48.95;99514.94;20851849;28;20111;-86
2022/12/15 06:06:20;;;;;;;39.55;16.58;;;;;;;20.18;41.10;99556.72;20874325;28;20080;-82
2022/12/15 06:16:23;;;;;;;19.05;11.82;;;;;;;20.44;42.16;99550.00;20858694;28;20082;-84
2022/12/15 06:26:28;;;;;;;17.42;9.35;;;;;;;20.60;44.31;99575.81;20843116;28;20092;-81
2022/12/15 06:36:29;;;;;;;14.93;8.75;;;;;;;20.71;44.87;99584.56;20848381;28;20029;-83
2022/12/15 06:46:30;;;;;;;17.42;8.32;;;;;;;20.81;46.05;99588.06;20854733;28;20118;-84
2022/12/15 06:56:36;;;;;;;18.65;9.68;;;;;;;20.81;44.18;99605.66;20847974;28;20040;-83
2022/12/15 07:06:37;;;;;;;12.25;7.80;;;;;;;20.91;44.55;99612.59;20869532;28;20109;-83
2022/12/15 07:16:38;;;;;;;16.55;8.18;;;;;;;20.98;44.60;99646.28;20858839;28;20039;-85
2022/12/15 07:26:39;;;;;;;13.20;6.90;;;;;;;21.12;45.55;99648.53;20848413;28;20073;-85
2022/12/15 07:36:39;;;;;;;14.43;7.25;;;;;;;21.18;44.85;99658.50;20853748;28;20175;-83
2022/12/15 07:46:40;;;;;;;11.65;6.68;;;;;;;21.21;45.41;99673.19;20869724;28;20073;-84
2022/12/15 07:56:41;;;;;;;13.43;6.93;;;;;;;21.22;45.03;99677.50;20884554;28;20138;-87
2022/12/15 08:06:43;;;;;;;10.98;6.43;;;;;;;21.31;45.20;99679.28;20869537;28;20132;-88
2022/12/15 08:16:44;;;;;;;10.48;5.90;;;;;;;21.40;45.59;99690.81;20887947;28;20487;-83
2022/12/15 08:26:45;;;;;;;13.65;6.80;;;;;;;21.41;45.11;99719.66;20883652;28;20053;-85
2022/12/15 08:36:47;;;;;;;10.05;6.28;;;;;;;21.48;45.07;99730.47;20864652;28;20045;-87
2022/12/15 08:46:50;;;;;;;9.30;6.53;;;;;;;21.49;44.70;99721.59;20849750;28;20037;-85
2022/12/15 08:56:50;;;;;;;10.03;5.90;;;;;;;21.51;44.65;99750.44;20859972;28;20294;-84
2022/12/15 09:06:52;;;;;;;9.02;6.03;;;;;;;21.47;44.79;99762.22;20862186;28;20494;-86
2022/12/15 09:16:52;;;;;;;10.02;6.15;;;;;;;21.43;44.93;99746.69;20871387;28;20090;-85
2022/12/15 09:26:52;;;;;;;12.55;6.30;;;;;;;21.51;45.74;99739.91;20841390;28;20041;-84
2022/12/15 09:36:53;;;;;;;16.83;8.00;;;;;;;21.50;45.95;99743.50;20831564;28;20033;-85
2022/12/15 09:47:15;;;;;;;16.38;8.45;;;;;;;21.49;45.99;99739.22;20818686;28;20048;-87
2022/12/15 09:57:28;;;;;;;17.67;10.17;;;;;;;21.59;46.03;99737.44;20831387;28;20647;-87
2022/12/15 10:07:36;;;;;;;16.98;9.75;;;;;;;21.65;46.07;99734.25;20821445;28;20171;-86
2022/12/15 10:18:03;;;;;;;15.30;10.30;;;;;;;21.68;46.11;99749.78;20831766;28;20045;-84
2022/12/15 10:28:45;;;;;;;17.52;11.18;;;;;;;21.69;45.81;99746.19;20826615;28;20045;-87
2022/12/15 10:38:47;;;;;;;17.52;11.55;;;;;;;21.70;45.35;99737.31;20837724;28;20441;-86
2022/12/15 10:48:59;;;;;;;21.17;12.57;;;;;;;21.70;45.82;99739.97;20829685;28;20057;-91
2022/12/15 10:59:21;;;;;;;17.37;12.30;;;;;;;21.69;45.46;99726.91;20832394;28;20037;-88
2022/12/15 11:09:35;;;;;;;18.55;12.27;;;;;;;21.66;45.93;99732.47;20817895;28;20052;-86
2022/12/15 11:20:05;;;;;;;18.23;12.70;;;;;;;21.64;46.07;99737.03;20831559;28;20045;-86
2022/12/15 11:30:21;;;;;;;18.35;12.82;;;;;;;21.66;46.12;99730.66;20829063;28;20076;-87
2022/12/15 11:40:30;;;;;;;19.50;12.63;;;;;;;21.67;45.98;99742.03;20823306;28;20049;-87
2022/12/15 11:51:03;;;;;;;22.02;12.45;;;;;;;21.67;45.99;99742.03;20818550;28;20125;-83
2022/12/15 12:01:22;;;;;;;22.13;13.13;;;;;;;21.62;46.13;99760.88;20825141;28;20044;-85
2022/12/15 12:11:49;;;;;;;20.83;12.93;;;;;;;21.62;45.46;99763.53;20816806;28;20046;-86
2022/12/15 12:21:59;;;;;;;19.65;12.63;;;;;;;21.59;45.96;99753.25;20838957;28;20068;-85
2022/12/15 12:32:40;;;;;;;20.30;12.82;;;;;;;21.55;45.68;99742.13;20892941;28;20041;-86
2022/12/15 12:43:01;;;;;;;18.63;12.05;;;;;;;21.55;45.50;99734.22;20871575;28;20120;-86
2022/12/15 12:53:02;;;;;;;19.65;12.10;;;;;;;21.54;45.79;99742.25;20856822;28;20130;-86
2022/12/15 13:03:16;;;;;;;26.75;12.80;;;;;;;21.51;45.12;99748.63;20862023;28;20048;-87
2022/12/15 13:13:28;;;;;;;20.10;13.23;;;;;;;21.72;47.10;99763.53;20866411;28;20609;-89
2022/12/15 13:23:28;;;;;;;21.90;14.65;;;;;;;21.78;48.41;99781.44;20835488;28;20368;-87
2022/12/15 13:33:29;;;;;;;23.15;15.07;;;;;;;21.75;47.90;99772.00;20826532;28;20037;-86
2022/12/15 13:43:45;;;;;;;23.50;15.38;;;;;;;21.71;47.58;99773.22;20857640;28;20064;-89
2022/12/15 13:53:55;;;;;;;26.10;17.02;;;;;;;21.67;47.08;99771.03;20856838;28;20092;-84
2022/12/15 14:04:04;;;;;;;24.73;16.23;;;;;;;21.61;47.17;99784.75;20838915;28;20039;-84
2022/12/15 14:14:04;;;;;;;21.75;14.73;;;;;;;21.55;46.58;99775.53;20827785;28;20399;-81
2022/12/15 14:24:25;;;;;;;21.98;14.48;;;;;;;21.48;46.87;99782.31;20811632;28;20044;-79
2022/12/15 14:34:26;;;;;;;23.27;14.65;;;;;;;21.38;46.79;99777.03;20834506;28;20045;-78
2022/12/15 14:44:31;;;;;;;21.83;14.93;;;;;;;21.36;46.92;99768.41;20819993;28;20407;-85
2022/12/15 14:54:48;;;;;;;24.10;14.88;;;;;;;21.23;47.06;99785.31;20840489;28;20049;-86
2022/12/15 15:05:02;;;;;;;21.33;13.90;;;;;;;21.19;47.22;99790.97;20827101;28;20061;-84
2022/12/15 15:15:05;;;;;;;22.75;13.05;;;;;;;21.17;46.76;99812.16;20842077;28;22034;-84
2022/12/15 15:25:24;;;;;;;18.87;12.37;;;;;;;21.11;46.91;99813.50;20830205;28;20049;-86
2022/12/15 15:35:32;;;;;;;18.05;12.38;;;;;;;21.03;46.81;99788.81;20822390;28;20069;-85
2022/12/15 15:45:33;;;;;;;20.73;12.40;;;;;;;20.97;46.91;99781.47;20828763;28;20045;-86
2022/12/15 15:55:34;;;;;;;19.88;11.50;;;;;;;20.96;46.72;99762.22;20818167;28;20065;-86
2022/12/15 16:05:35;;;;;;;17.20;11.23;;;;;;;20.89;46.56;99772.44;20836907;28;20143;-86
2022/12/15 16:15:36;;;;;;;17.55;11.32;;;;;;;20.89;46.55;99776.88;20850139;28;20166;-86
2022/12/15 16:25:41;;;;;;;17.27;11.43;;;;;;;20.84;46.32;99774.63;20830812;28;20037;-86
2022/12/15 16:35:43;;;;;;;16.90;11.05;;;;;;;20.88;46.14;99773.38;20846235;28;20142;-84
2022/12/15 16:45:46;;;;;;;23.53;11.60;;;;;;;20.80;47.12;99786.38;20844332;28;20051;-83
2022/12/15 16:55:51;;;;;;;16.67;10.70;;;;;;;20.83;48.00;99790.56;20824806;28;20067;-83
2022/12/15 17:05:55;;;;;;;18.10;10.85;;;;;;;20.83;48.03;99801.91;20806322;28;20378;-83
2022/12/15 17:15:58;;;;;;;17.48;10.40;;;;;;;20.78;48.56;99812.00;20831619;28;20057;-78
2022/12/15 17:25:58;;;;;;;15.97;10.30;;;;;;;20.72;48.45;99809.88;20806971;28;20183;-77
2022/12/15 17:36:10;;;;;;;16.45;9.75;;;;;;;20.83;49.55;99815.06;20812147;28;20467;-82
2022/12/15 17:46:10;;;;;;;24.58;10.27;;;;;;;20.87;50.75;99808.59;20800360;28;20048;-78
2022/12/15 17:56:13;;;;;;;16.77;9.82;;;;;;;20.86;51.37;99796.38;20817869;28;25000;-82
2022/12/15 18:06:15;;;;;;;36.20;15.02;;;;;;;20.86;51.44;99806.91;20813663;28;20045;-82
2022/12/15 18:16:16;;;;;;;37.10;15.07;;;;;;;20.76;50.95;99793.72;20860098;28;20056;-84
2022/12/15 18:26:17;;;;;;;34.58;14.90;;;;;;;20.73;50.55;99801.84;20843914;28;20103;-81
2022/12/15 18:36:19;;;;;;;29.80;15.75;;;;;;;20.56;49.87;99794.53;20814754;28;20049;-82
2022/12/15 18:46:21;;;;;;;26.67;16.27;;;;;;;20.75;51.87;99805.19;20825812;28;20052;-84
2022/12/15 18:56:22;;;;;;;24.90;16.00;;;;;;;20.82;54.69;99802.84;20817310;28;20524;-82
2022/12/15 19:06:33;;;;;;;30.27;16.90;;;;;;;20.88;56.50;99791.81;20808552;28;20486;-83
2022/12/15 19:26:56;;;;;;;28.02;18.05;;;;;;;20.96;58.56;99764.84;20833332;28;20392;-80
2022/12/15 19:37:00;;;;;;;30.95;18.33;;;;;;;20.99;59.31;99782.16;20829178;28;20041;-80
2022/12/15 19:47:01;;;;;;;29.02;18.40;;;;;;;21.01;60.19;99778.44;20831406;28;20049;-79
2022/12/15 19:57:01;;;;;;;44.90;25.45;;;;;;;21.04;60.69;99772.91;20845269;28;20060;-79
2022/12/15 20:07:03;;;;;;;76.30;37.15;;;;;;;21.06;60.51;99749.91;20818544;28;20044;-77
2022/12/15 20:17:04;;;;;;;53.33;25.77;;;;;;;20.64;53.51;99736.81;20790875;28;20548;-84
2022/12/15 20:27:16;;;;;;;38.55;22.52;;;;;;;20.70;54.25;99696.00;20824232;28;20052;-80
2022/12/15 20:37:22;;;;;;;35.60;19.48;;;;;;;20.71;54.98;99693.25;20839587;28;20068;-83
2022/12/15 20:47:25;;;;;;;28.48;16.35;;;;;;;20.74;55.30;99706.19;20831400;28;20045;-83
2022/12/15 20:57:26;;;;;;;29.35;15.68;;;;;;;20.73;55.37;99707.13;20832702;28;20033;-83
2022/12/15 21:07:26;;;;;;;25.50;14.33;;;;;;;20.71;55.34;99684.53;20826577;28;20056;-83
2022/12/15 21:17:28;;;;;;;18.80;11.85;;;;;;;20.69;54.98;99687.31;20842986;28;20826;-83
2022/12/15 21:27:29;;;;;;;18.63;10.60;;;;;;;20.66;55.10;99670.94;20834518;28;20180;-80
2022/12/15 21:37:31;;;;;;;16.90;10.18;;;;;;;20.68;54.76;99671.63;20840553;28;20037;-81
2022/12/15 21:57:53;;;;;;;13.50;8.88;;;;;;;20.62;54.51;99631.75;20853675;28;20030;-81
2022/12/15 22:07:55;;;;;;;13.45;8.60;;;;;;;20.61;54.65;99627.44;20848075;28;20041;-81
2022/12/15 22:17:57;;;;;;;13.70;8.38;;;;;;;20.59;54.90;99621.50;20830769;28;20064;-80
2022/12/15 22:27:58;;;;;;;14.30;8.15;;;;;;;20.59;54.97;99613.59;20842013;28;20049;-83
2022/12/15 22:38:00;;;;;;;9.00;6.55;;;;;;;20.56;55.02;99594.63;20835810;28;20124;-82
2022/12/15 22:48:03;;;;;;;13.55;7.82;;;;;;;20.54;54.73;99596.56;20844572;28;20053;-81
2022/12/15 22:58:07;;;;;;;10.47;7.30;;;;;;;20.52;54.82;99577.44;20845556;28;23759;-81
2022/12/15 23:08:08;;;;;;;11.23;7.00;;;;;;;20.52;54.64;99585.31;20846584;28;20076;-82
2022/12/15 23:18:09;;;;;;;11.15;7.20;;;;;;;20.50;54.75;99558.34;20820567;28;20065;-80
2022/12/15 23:28:09;;;;;;;9.25;6.15;;;;;;;20.48;54.44;99551.44;20825507;28;20037;-79
2022/12/15 23:38:11;;;;;;;12.77;6.93;;;;;;;20.46;54.44;99531.50;20852497;28;20041;-80
2022/12/15 23:48:13;;;;;;;11.57;6.93;;;;;;;20.45;54.50;99514.03;20841120;28;20457;-80
2022/12/15 23:58:15;;;;;;;10.83;6.00;;;;;;;20.45;54.28;99509.59;20838309;28;20033;-79
